N785CS KCHA-KRMG
Flight info
| Callsign | N785CS |
|---|---|
| Flight time | N/A |
| Altitude | 3500 |
| Route | KCHA N0109A035 JISET KRMG |
| Aircraft | C172/L-V/N |
Departure
| Time | 2026-05-03 22:16 |
|---|---|
| Airport | Chattanooga Metropolitan Airport (Lovell Field) (KCHA) |
Arrival
| Time | N/A |
|---|---|
| Airport | Richard B Russell Airport (KRMG) |
| Time | Latitude | Longitude | Altitude | Speed | Heading |
|---|---|---|---|---|---|
| 2026-05-03 21:54 | 35.02778 | -85.20308 | 675 ft | 0 kts | 198° |
| 2026-05-03 22:06 | 35.02776 | -85.20309 | 675 ft | 1 kts | 216° |
| 2026-05-03 22:06 | 35.02780 | -85.20331 | 674 ft | 4 kts | 327° |
| 2026-05-03 22:07 | 35.02818 | -85.20342 | 674 ft | 6 kts | 352° |
| 2026-05-03 22:07 | 35.02862 | -85.20367 | 675 ft | 7 kts | 324° |
| 2026-05-03 22:07 | 35.02908 | -85.20377 | 676 ft | 6 kts | 16° |
| 2026-05-03 22:07 | 35.02953 | -85.20361 | 677 ft | 6 kts | 15° |
| 2026-05-03 22:08 | 35.02997 | -85.20345 | 677 ft | 6 kts | 17° |
| 2026-05-03 22:08 | 35.03044 | -85.20328 | 678 ft | 7 kts | 14° |
| 2026-05-03 22:08 | 35.03095 | -85.20309 | 677 ft | 8 kts | 15° |
| 2026-05-03 22:08 | 35.03159 | -85.20286 | 678 ft | 9 kts | 16° |
| 2026-05-03 22:09 | 35.03232 | -85.20260 | 676 ft | 12 kts | 17° |
| 2026-05-03 22:09 | 35.03270 | -85.20246 | 676 ft | 0 kts | 15° |
| 2026-05-03 22:12 | 35.03272 | -85.20245 | 676 ft | 0 kts | 12° |
| 2026-05-03 22:12 | 35.03289 | -85.20241 | 675 ft | 3 kts | 12° |
| 2026-05-03 22:12 | 35.03308 | -85.20267 | 675 ft | 4 kts | 284° |
| 2026-05-03 22:12 | 35.03309 | -85.20270 | 675 ft | 0 kts | 285° |
| 2026-05-03 22:13 | 35.03310 | -85.20274 | 675 ft | 1 kts | 286° |
| 2026-05-03 22:14 | 35.03319 | -85.20314 | 675 ft | 7 kts | 283° |
| 2026-05-03 22:14 | 35.03302 | -85.20373 | 675 ft | 8 kts | 199° |
| 2026-05-03 22:14 | 35.03154 | -85.20428 | 676 ft | 45 kts | 199° |
| 2026-05-03 22:14 | 35.02723 | -85.20576 | 710 ft | 75 kts | 200° |
| 2026-05-03 22:15 | 35.02189 | -85.20725 | 836 ft | 82 kts | 197° |
| 2026-05-03 22:15 | 35.01613 | -85.20843 | 984 ft | 84 kts | 194° |
| 2026-05-03 22:15 | 35.01011 | -85.20915 | 1064 ft | 92 kts | 194° |
| 2026-05-03 22:15 | 35.00369 | -85.20957 | 1186 ft | 93 kts | 191° |
| 2026-05-03 22:16 | 34.99721 | -85.21067 | 1305 ft | 93 kts | 195° |
| 2026-05-03 22:16 | 34.99087 | -85.21195 | 1424 ft | 93 kts | 194° |
| 2026-05-03 22:16 | 34.98446 | -85.21334 | 1545 ft | 93 kts | 197° |
| 2026-05-03 22:16 | 34.97802 | -85.21261 | 1669 ft | 101 kts | 157° |
| 2026-05-03 22:17 | 34.97353 | -85.20591 | 1802 ft | 108 kts | 110° |
| 2026-05-03 22:17 | 34.97403 | -85.19705 | 1941 ft | 107 kts | 61° |
| 2026-05-03 22:17 | 34.97906 | -85.19106 | 2088 ft | 101 kts | 21° |
| 2026-05-03 22:17 | 34.98544 | -85.18742 | 2208 ft | 102 kts | 16° |
| 2026-05-03 22:18 | 34.99200 | -85.18391 | 2334 ft | 102 kts | 17° |
| 2026-05-03 22:18 | 34.99873 | -85.18177 | 2458 ft | 96 kts | 345° |
| 2026-05-03 22:18 | 35.00403 | -85.18541 | 2590 ft | 87 kts | 299° |
| 2026-05-03 22:18 | 35.00495 | -85.19208 | 2727 ft | 84 kts | 253° |
| 2026-05-03 22:19 | 35.00095 | -85.19715 | 2867 ft | 88 kts | 204° |
| 2026-05-03 22:19 | 34.99469 | -85.19674 | 3007 ft | 94 kts | 163° |
| 2026-05-03 22:19 | 34.98840 | -85.19463 | 3122 ft | 94 kts | 185° |
| 2026-05-03 22:19 | 34.98275 | -85.19737 | 3231 ft | 91 kts | 225° |
| 2026-05-03 22:20 | 34.98010 | -85.20411 | 3344 ft | 89 kts | 267° |
| 2026-05-03 22:20 | 34.98214 | -85.21105 | 3455 ft | 91 kts | 308° |
| 2026-05-03 22:20 | 34.98783 | -85.21436 | 3565 ft | 96 kts | 350° |
| 2026-05-03 22:20 | 34.99422 | -85.21201 | 3675 ft | 102 kts | 32° |
| 2026-05-03 22:21 | 34.99806 | -85.20461 | 3787 ft | 106 kts | 74° |
| 2026-05-03 22:21 | 34.99718 | -85.19585 | 3897 ft | 107 kts | 116° |
| 2026-05-03 22:21 | 34.99194 | -85.18961 | 3969 ft | 108 kts | 157° |
| 2026-05-03 22:21 | 34.98467 | -85.18877 | 3979 ft | 107 kts | 195° |
| 2026-05-03 22:22 | 34.97731 | -85.19055 | 3985 ft | 109 kts | 192° |
| 2026-05-03 22:22 | 34.96962 | -85.19138 | 3986 ft | 111 kts | 185° |
| 2026-05-03 22:22 | 34.96184 | -85.19138 | 3983 ft | 111 kts | 182° |
| 2026-05-03 22:22 | 34.95415 | -85.19089 | 3981 ft | 111 kts | 179° |
| 2026-05-03 22:23 | 34.94645 | -85.19011 | 3980 ft | 110 kts | 178° |
| 2026-05-03 22:23 | 34.93876 | -85.18916 | 3981 ft | 110 kts | 177° |
| 2026-05-03 22:23 | 34.93119 | -85.18816 | 3981 ft | 110 kts | 177° |
| 2026-05-03 22:23 | 34.92355 | -85.18709 | 3981 ft | 110 kts | 176° |
| 2026-05-03 22:24 | 34.91595 | -85.18600 | 3981 ft | 110 kts | 176° |
| 2026-05-03 22:24 | 34.90828 | -85.18491 | 3981 ft | 110 kts | 176° |
| 2026-05-03 22:24 | 34.90072 | -85.18383 | 3981 ft | 110 kts | 176° |
| 2026-05-03 22:24 | 34.89419 | -85.18285 | 3981 ft | 110 kts | 176° |